createdAt,value
2023-01-13T00:01:23.827Z,7.20
2023-01-13T00:03:51.043Z,7.30
2023-01-13T00:06:20.069Z,7.20
2023-01-13T00:08:50.516Z,7.30
2023-01-13T00:11:18.565Z,7.20
2023-01-13T00:13:45.915Z,7.30
2023-01-13T00:16:15.781Z,7.30
2023-01-13T00:18:43.100Z,7.30
2023-01-13T00:21:18.808Z,7.00
2023-01-13T00:23:46.400Z,6.80
2023-01-13T00:26:15.961Z,6.80
2023-01-13T00:28:42.849Z,6.60
2023-01-13T00:31:12.329Z,6.50
2023-01-13T00:33:39.746Z,6.50
2023-01-13T00:36:08.600Z,6.50
2023-01-13T00:38:36.434Z,6.40
2023-01-13T00:41:06.313Z,6.40
2023-01-13T00:43:34.551Z,6.40
2023-01-13T00:46:01.985Z,6.40
2023-01-13T00:48:30.164Z,6.20
2023-01-13T00:51:27.606Z,6.30
2023-01-13T00:53:54.826Z,6.20
2023-01-13T00:56:39.238Z,6.10
2023-01-13T00:59:07.775Z,6.10
2023-01-13T01:01:36.050Z,6.00
2023-01-13T01:04:02.906Z,6.10
2023-01-13T01:06:31.078Z,6.10
2023-01-13T01:08:57.918Z,5.90
2023-01-13T01:11:27.181Z,5.90
2023-01-13T01:13:56.325Z,5.80
2023-01-13T01:16:25.883Z,5.80
2023-01-13T01:18:54.250Z,5.70
2023-01-13T01:21:23.051Z,5.70
2023-01-13T01:23:49.897Z,5.70
2023-01-13T01:26:19.751Z,5.60
2023-01-13T01:28:47.736Z,5.60
2023-01-13T01:31:17.589Z,5.60
2023-01-13T01:33:46.335Z,5.60
2023-01-13T01:36:14.521Z,5.60
2023-01-13T01:38:41.353Z,5.50
2023-01-13T01:41:08.266Z,5.50
2023-01-13T01:44:08.034Z,5.50
2023-01-13T01:46:43.730Z,5.50
2023-01-13T01:49:33.452Z,5.60
2023-01-13T01:52:06.815Z,5.60
2023-01-13T01:54:47.365Z,5.70
2023-01-13T01:57:22.125Z,5.70
2023-01-13T01:59:49.730Z,5.70
2023-01-13T02:02:17.086Z,5.60
2023-01-13T02:04:51.699Z,5.60
2023-01-13T02:07:28.184Z,5.70
2023-01-13T02:09:57.758Z,5.70
2023-01-13T02:12:30.099Z,5.80
2023-01-13T02:15:04.078Z,5.90
2023-01-13T02:17:49.028Z,5.90
2023-01-13T02:20:49.165Z,5.80
2023-01-13T02:23:37.609Z,5.70
2023-01-13T02:26:22.903Z,5.60
2023-01-13T02:29:30.077Z,5.60
2023-01-13T02:32:05.611Z,5.60
2023-01-13T02:34:49.152Z,5.60
2023-01-13T02:37:28.666Z,5.80
2023-01-13T02:40:11.180Z,5.90
2023-01-13T02:43:08.018Z,5.70
2023-01-13T02:45:43.507Z,5.70
2023-01-13T02:48:11.336Z,5.70
2023-01-13T02:50:44.627Z,5.60
2023-01-13T02:53:36.086Z,5.60
2023-01-13T02:56:05.346Z,5.60
2023-01-13T02:58:33.643Z,5.60
2023-01-13T03:01:00.531Z,5.60
2023-01-13T03:03:27.354Z,5.50
2023-01-13T03:06:04.260Z,5.50
2023-01-13T03:08:47.714Z,5.50
2023-01-13T03:11:17.236Z,5.50
2023-01-13T03:13:55.669Z,5.50
2023-01-13T03:16:28.808Z,5.50
2023-01-13T03:19:13.989Z,5.50
2023-01-13T03:21:56.789Z,5.50
2023-01-13T03:24:30.712Z,5.50
2023-01-13T03:27:00.413Z,5.50
2023-01-13T03:29:37.166Z,5.40
2023-01-13T03:32:12.940Z,5.40
2023-01-13T03:35:24.797Z,5.40
2023-01-13T03:37:58.373Z,5.40
2023-01-13T03:40:29.668Z,5.40
2023-01-13T03:43:21.204Z,5.50
2023-01-13T03:45:55.582Z,5.50
2023-01-13T03:48:25.149Z,5.50
2023-01-13T03:50:54.027Z,5.50
2023-01-13T03:53:30.814Z,5.60
2023-01-13T03:56:07.507Z,5.60
2023-01-13T03:58:38.229Z,5.60
2023-01-13T04:01:26.695Z,5.50
2023-01-13T04:04:09.692Z,5.60
2023-01-13T04:07:08.135Z,5.70
2023-01-13T04:10:06.702Z,5.70
2023-01-13T04:13:05.208Z,5.80
2023-01-13T04:15:39.516Z,5.80
2023-01-13T04:18:13.784Z,5.70
2023-01-13T04:20:41.558Z,5.90
2023-01-13T04:23:08.555Z,6.10
2023-01-13T04:25:35.832Z,6.00
2023-01-13T04:28:03.159Z,6.10
2023-01-13T04:30:30.099Z,6.10
2023-01-13T04:32:56.885Z,6.20
2023-01-13T04:35:23.776Z,6.10
2023-01-13T04:37:50.607Z,6.10
2023-01-13T04:40:17.709Z,6.20
2023-01-13T04:42:45.282Z,6.20
2023-01-13T04:45:12.807Z,6.40
2023-01-13T04:47:41.600Z,6.50
2023-01-13T04:50:09.796Z,6.60
2023-01-13T04:52:36.576Z,6.70
2023-01-13T04:55:03.796Z,6.70
2023-01-13T04:57:30.875Z,6.70
2023-01-13T04:59:57.516Z,6.50
2023-01-13T05:02:24.316Z,6.50
2023-01-13T05:04:51.407Z,6.40
2023-01-13T05:07:18.455Z,6.30
2023-01-13T05:09:45.116Z,6.40
2023-01-13T05:12:30.469Z,6.40
2023-01-13T05:15:15.880Z,6.60
2023-01-13T05:17:43.585Z,6.50
2023-01-13T05:20:11.359Z,6.70
2023-01-13T05:22:56.737Z,6.70
2023-01-13T05:25:25.288Z,6.70
2023-01-13T05:27:57.702Z,6.80
2023-01-13T05:30:31.321Z,6.80
2023-01-13T05:32:58.451Z,6.80
2023-01-13T05:35:25.591Z,6.90
2023-01-13T05:37:52.296Z,7.00
2023-01-13T05:40:37.833Z,7.10
2023-01-13T05:43:20.790Z,7.00
2023-01-13T05:45:52.159Z,7.20
2023-01-13T05:48:22.219Z,7.20
2023-01-13T05:50:49.632Z,7.00
2023-01-13T05:53:17.942Z,7.00
2023-01-13T05:55:45.705Z,7.10
2023-01-13T05:58:15.456Z,7.10
2023-01-13T06:00:43.119Z,7.30
2023-01-13T06:03:10.713Z,7.40
2023-01-13T06:05:38.037Z,7.50
2023-01-13T06:08:07.474Z,7.50
2023-01-13T06:10:34.952Z,7.40
2023-01-13T06:13:02.206Z,7.40
2023-01-13T06:15:28.986Z,7.50
2023-01-13T06:17:57.085Z,7.50
2023-01-13T06:20:24.872Z,7.40
2023-01-13T06:22:53.777Z,7.40
2023-01-13T06:25:35.133Z,7.20
2023-01-13T06:30:50.971Z,6.90
2023-01-13T06:33:22.422Z,7.00
2023-01-13T06:35:56.648Z,7.10
2023-01-13T06:38:26.087Z,7.20
2023-01-13T06:40:53.202Z,7.20
2023-01-13T06:43:20.449Z,7.10
2023-01-13T06:45:51.014Z,7.20
2023-01-13T06:48:18.925Z,7.10
2023-01-13T06:50:46.053Z,7.20
2023-01-13T06:53:12.872Z,7.30
2023-01-13T06:55:39.617Z,7.40
2023-01-13T06:58:06.825Z,7.40
2023-01-13T07:00:36.453Z,7.40
2023-01-13T07:03:16.693Z,7.40
2023-01-13T07:05:52.600Z,7.40
2023-01-13T07:08:19.523Z,7.30
2023-01-13T07:10:46.289Z,7.40
2023-01-13T07:13:31.766Z,7.40
2023-01-13T07:16:03.947Z,7.40
2023-01-13T07:18:31.976Z,7.40
2023-01-13T07:21:09.557Z,7.40
2023-01-13T07:23:41.180Z,7.50
2023-01-13T07:26:09.375Z,7.50
2023-01-13T07:28:37.145Z,7.60
2023-01-13T07:31:04.904Z,7.60
2023-01-13T07:33:34.639Z,7.50
2023-01-13T07:36:03.667Z,7.60
2023-01-13T07:38:31.497Z,7.50
2023-01-13T07:40:58.594Z,7.50
2023-01-13T07:43:34.421Z,7.60
2023-01-13T07:46:04.525Z,7.60
2023-01-13T07:48:33.081Z,7.70
2023-01-13T07:51:08.520Z,7.70
2023-01-13T07:53:35.926Z,7.70
2023-01-13T07:56:04.031Z,7.70
2023-01-13T07:58:30.975Z,7.80
2023-01-13T08:00:58.283Z,7.80
2023-01-13T08:03:25.279Z,7.90
2023-01-13T08:05:52.292Z,7.90
2023-01-13T08:08:19.288Z,8.00
2023-01-13T08:10:46.050Z,8.10
2023-01-13T08:13:22.287Z,7.90
2023-01-13T08:15:54.641Z,8.00
2023-01-13T08:18:23.025Z,8.00
2023-01-13T08:20:52.393Z,8.00
2023-01-13T08:23:20.602Z,7.90
2023-01-13T08:25:48.159Z,7.90
2023-01-13T08:28:15.939Z,8.00
2023-01-13T08:30:43.184Z,8.00
2023-01-13T08:33:11.721Z,8.00
2023-01-13T08:35:40.258Z,8.10
2023-01-13T08:38:08.170Z,8.20
2023-01-13T08:40:35.500Z,8.20
2023-01-13T08:43:02.784Z,8.20
2023-01-13T08:45:29.753Z,8.10
2023-01-13T08:47:56.588Z,8.10
2023-01-13T08:50:23.574Z,8.20
2023-01-13T08:52:50.275Z,8.30
2023-01-13T08:55:17.353Z,8.30
2023-01-13T08:57:44.549Z,8.30
2023-01-13T09:00:11.782Z,8.40
2023-01-13T09:02:38.619Z,8.30
2023-01-13T09:05:09.308Z,8.30
2023-01-13T09:07:37.803Z,8.40
2023-01-13T09:10:06.469Z,8.40
2023-01-13T09:12:52.229Z,8.50
2023-01-13T09:15:19.082Z,8.50
2023-01-13T09:17:46.267Z,8.50
2023-01-13T09:20:14.028Z,8.60
2023-01-13T09:22:41.471Z,8.70
2023-01-13T09:25:08.845Z,8.70
2023-01-13T09:27:35.894Z,8.80
2023-01-13T09:30:02.689Z,8.90
2023-01-13T09:32:29.564Z,8.90
2023-01-13T09:35:02.320Z,9.00
2023-01-13T09:37:31.482Z,9.00
2023-01-13T09:39:58.223Z,8.90
2023-01-13T09:43:19.055Z,8.90
2023-01-13T09:45:51.420Z,8.90
2023-01-13T09:48:35.338Z,8.80
2023-01-13T09:51:21.379Z,8.90
2023-01-13T09:53:51.092Z,9.10
2023-01-13T09:56:17.923Z,9.20
2023-01-13T09:58:47.215Z,9.30
2023-01-13T10:01:35.449Z,9.20
2023-01-13T10:04:11.185Z,9.20
2023-01-13T10:06:42.523Z,9.20
2023-01-13T10:09:20.790Z,9.20
2023-01-13T10:12:08.514Z,9.00
2023-01-13T10:14:41.102Z,8.60
2023-01-13T10:17:44.816Z,9.20
2023-01-13T10:20:42.362Z,9.00
2023-01-13T10:23:43.319Z,8.90
2023-01-13T10:26:28.978Z,8.90
2023-01-13T10:28:57.306Z,9.00
2023-01-13T10:31:25.284Z,9.10
2023-01-13T10:34:04.247Z,9.20
2023-01-13T10:36:31.059Z,9.30
2023-01-13T10:39:16.978Z,9.40
2023-01-13T10:41:44.753Z,9.60
2023-01-13T10:44:18.866Z,9.60
2023-01-13T10:46:54.492Z,9.60
2023-01-13T10:49:32.897Z,9.70
2023-01-13T10:52:01.814Z,9.60
2023-01-13T10:54:29.044Z,9.60
2023-01-13T10:57:15.615Z,9.60
2023-01-13T10:59:42.577Z,9.70
2023-01-13T11:02:24.953Z,9.80
2023-01-13T11:04:55.797Z,9.70
2023-01-13T11:07:31.856Z,9.80
2023-01-13T11:10:23.569Z,9.70
2023-01-13T11:12:58.921Z,9.90
2023-01-13T11:15:55.373Z,9.90
2023-01-13T11:18:28.936Z,10.20
2023-01-13T11:20:58.013Z,10.30
2023-01-13T11:23:34.191Z,10.40
2023-01-13T11:26:21.695Z,10.50
2023-01-13T11:29:08.192Z,10.70
2023-01-13T11:31:46.189Z,10.70
2023-01-13T11:34:25.797Z,10.70
2023-01-13T11:36:56.134Z,10.70
2023-01-13T11:39:44.080Z,10.50
2023-01-13T11:42:51.043Z,10.50
2023-01-13T11:45:24.269Z,11.00
2023-01-13T11:47:58.484Z,11.30
2023-01-13T11:50:47.548Z,11.40
2023-01-13T11:53:36.212Z,12.70
2023-01-13T11:56:13.549Z,13.30
2023-01-13T11:58:53.721Z,12.70
2023-01-13T12:01:39.536Z,13.10
2023-01-13T12:04:29.577Z,12.90
2023-01-13T12:07:12.833Z,13.60
2023-01-13T12:09:39.513Z,15.80
2023-01-13T12:12:32.942Z,17.00
2023-01-13T12:15:22.393Z,18.90
2023-01-13T12:18:07.489Z,19.30
2023-01-13T12:20:55.994Z,19.40
2023-01-13T12:23:29.237Z,20.70
2023-01-13T12:26:04.899Z,21.60
2023-01-13T12:28:43.840Z,22.70
2023-01-13T12:31:11.283Z,20.40
2023-01-13T12:34:02.853Z,18.10
2023-01-13T12:36:35.814Z,16.10
2023-01-13T12:39:50.262Z,17.50
2023-01-13T12:42:47.306Z,20.40
2023-01-13T12:45:14.092Z,21.90
2023-01-13T12:47:48.819Z,22.30
2023-01-13T12:50:28.034Z,22.50
2023-01-13T12:53:29.085Z,24.40
2023-01-13T12:56:24.512Z,24.10
2023-01-13T12:58:51.884Z,23.50
2023-01-13T13:01:33.949Z,21.70
2023-01-13T13:04:09.472Z,19.00
2023-01-13T13:06:37.582Z,17.10
2023-01-13T13:09:17.486Z,16.30
2023-01-13T13:11:58.864Z,15.10
2023-01-13T13:14:37.953Z,14.70
2023-01-13T13:17:28.957Z,14.20
2023-01-13T13:19:57.635Z,13.70
2023-01-13T13:22:27.723Z,13.20
2023-01-13T13:24:54.508Z,12.90
2023-01-13T13:27:44.275Z,13.50
2023-01-13T13:30:20.543Z,13.30
2023-01-13T13:33:14.429Z,12.80
2023-01-13T13:35:52.087Z,12.80
2023-01-13T13:39:12.325Z,12.70
2023-01-13T13:42:03.696Z,13.10
2023-01-13T13:44:54.994Z,13.70
2023-01-13T13:47:21.902Z,14.80
2023-01-13T13:49:53.825Z,15.80
2023-01-13T13:52:23.516Z,18.10
2023-01-13T13:54:53.841Z,19.70
2023-01-13T13:57:27.112Z,20.90
2023-01-13T13:59:59.934Z,22.00
2023-01-13T14:02:31.193Z,22.80
2023-01-13T14:05:29.832Z,22.80
2023-01-13T14:08:14.551Z,22.10
2023-01-13T14:10:43.404Z,21.60
2023-01-13T14:13:27.138Z,21.20
2023-01-13T14:16:05.163Z,20.70
2023-01-13T14:18:47.651Z,20.60
2023-01-13T14:21:22.680Z,20.20
2023-01-13T14:24:00.657Z,20.40
2023-01-13T14:26:32.255Z,18.40
2023-01-13T14:29:01.370Z,16.50
2023-01-13T14:31:29.407Z,14.80
2023-01-13T14:33:58.465Z,13.80
2023-01-13T14:36:36.651Z,13.10
2023-01-13T14:39:03.355Z,12.70
2023-01-13T14:41:39.027Z,12.30
2023-01-13T14:44:26.798Z,12.00
2023-01-13T14:46:56.804Z,11.80
2023-01-13T14:49:40.345Z,11.50
2023-01-13T14:52:09.814Z,11.50
2023-01-13T14:54:46.603Z,11.80
2023-01-13T14:57:33.213Z,11.50
2023-01-13T15:00:21.474Z,11.20
2023-01-13T15:03:01.545Z,11.10
2023-01-13T15:05:30.343Z,10.90
2023-01-13T15:08:01.732Z,10.90
2023-01-13T15:10:48.960Z,10.70
2023-01-13T15:13:51.493Z,10.70
2023-01-13T15:16:20.253Z,10.80
2023-01-13T15:18:47.188Z,10.80
2023-01-13T15:21:15.668Z,10.90
2023-01-13T15:23:43.063Z,10.90
2023-01-13T15:26:25.065Z,10.90
2023-01-13T15:28:53.390Z,11.00
2023-01-13T15:31:20.557Z,11.00
2023-01-13T15:33:47.576Z,10.80
2023-01-13T15:36:28.488Z,10.80
2023-01-13T15:38:56.136Z,10.90
2023-01-13T15:41:41.440Z,11.00
2023-01-13T15:44:29.926Z,11.00
2023-01-13T15:46:57.527Z,11.10
2023-01-13T15:49:34.683Z,11.00
2023-01-13T15:52:03.562Z,10.90
2023-01-13T15:54:30.659Z,10.80
2023-01-13T15:56:57.941Z,10.70
2023-01-13T15:59:27.815Z,10.50
2023-01-13T16:01:54.784Z,10.40
2023-01-13T16:04:21.635Z,10.50
2023-01-13T16:06:48.817Z,10.50
2023-01-13T16:09:16.926Z,10.30
2023-01-13T16:11:44.083Z,10.10
2023-01-13T16:14:10.871Z,10.00
2023-01-13T16:16:37.772Z,10.00
2023-01-13T16:19:04.843Z,9.80
2023-01-13T16:21:31.749Z,9.90
2023-01-13T16:23:58.522Z,9.90
2023-01-13T16:26:29.052Z,10.00
2023-01-13T16:28:58.044Z,10.10
2023-01-13T16:31:32.989Z,10.10
2023-01-13T16:34:01.939Z,10.00
2023-01-13T16:36:30.928Z,10.10
2023-01-13T16:38:57.958Z,9.80
2023-01-13T16:41:25.238Z,9.60
2023-01-13T16:43:52.580Z,9.40
2023-01-13T16:46:25.212Z,9.50
2023-01-13T16:48:58.024Z,9.40
2023-01-13T16:51:24.865Z,9.30
2023-01-13T16:53:51.999Z,9.30
2023-01-13T16:56:27.511Z,9.20
2023-01-13T16:58:56.680Z,9.10
2023-01-13T17:01:29.789Z,9.20
2023-01-13T17:03:57.591Z,9.30
2023-01-13T17:06:29.335Z,9.30
2023-01-13T17:09:04.785Z,9.30
2023-01-13T17:11:31.627Z,9.30
2023-01-13T17:13:58.310Z,9.40
2023-01-13T17:16:26.322Z,9.40
2023-01-13T17:18:53.822Z,9.40
2023-01-13T17:21:20.631Z,9.40
2023-01-13T17:23:47.662Z,9.40
2023-01-13T17:26:43.839Z,9.30
2023-01-13T17:29:15.031Z,9.40
2023-01-13T17:31:42.076Z,9.20
2023-01-13T17:34:11.272Z,9.20
2023-01-13T17:36:38.211Z,9.20
2023-01-13T17:39:05.094Z,9.20
2023-01-13T17:41:31.984Z,8.90
2023-01-13T17:43:58.982Z,8.90
2023-01-13T17:46:25.809Z,8.80
2023-01-13T17:48:54.009Z,8.70
2023-01-13T17:51:22.739Z,8.90
2023-01-13T17:53:49.451Z,8.80
2023-01-13T17:56:17.072Z,8.70
2023-01-13T17:58:45.529Z,8.60
2023-01-13T18:01:18.036Z,8.70
2023-01-13T18:03:45.636Z,8.80
2023-01-13T18:06:19.215Z,8.90
2023-01-13T18:08:47.200Z,9.00
2023-01-13T18:11:15.513Z,9.10
2023-01-13T18:13:45.962Z,8.90
2023-01-13T18:16:15.596Z,8.90
2023-01-13T18:18:44.292Z,9.00
2023-01-13T18:21:47.678Z,9.00
2023-01-13T18:24:35.427Z,8.90
2023-01-13T18:27:21.539Z,9.00
2023-01-13T18:29:49.478Z,8.90
2023-01-13T18:32:16.435Z,9.00
2023-01-13T18:34:43.589Z,9.00
2023-01-13T18:37:12.329Z,9.10
2023-01-13T18:39:39.085Z,9.10
2023-01-13T18:42:26.339Z,9.00
2023-01-13T18:44:54.183Z,8.90
2023-01-13T18:47:20.987Z,8.80
2023-01-13T18:49:47.848Z,8.80
2023-01-13T18:52:14.589Z,8.80
2023-01-13T18:54:41.429Z,8.70
2023-01-13T18:57:08.482Z,8.70
2023-01-13T18:59:35.279Z,8.60
2023-01-13T19:02:03.295Z,8.50
2023-01-13T19:04:30.036Z,8.60
2023-01-13T19:07:00.902Z,8.50
2023-01-13T19:09:29.530Z,8.50
2023-01-13T19:11:57.282Z,8.50
2023-01-13T19:14:34.364Z,8.30
2023-01-13T19:17:03.121Z,8.20
2023-01-13T19:19:31.817Z,8.00
2023-01-13T19:21:58.520Z,8.00
2023-01-13T19:24:28.275Z,8.10
2023-01-13T19:26:55.044Z,8.20
2023-01-13T19:29:21.940Z,8.10
2023-01-13T19:31:48.794Z,8.10
2023-01-13T19:34:16.007Z,7.90
2023-01-13T19:36:42.930Z,7.80
2023-01-13T19:39:10.265Z,7.70
2023-01-13T19:41:55.953Z,7.80
2023-01-13T19:44:41.438Z,7.70
2023-01-13T19:47:08.409Z,7.60
2023-01-13T19:49:35.281Z,7.40
2023-01-13T19:52:02.144Z,7.40
2023-01-13T19:54:28.945Z,7.40
2023-01-13T19:56:55.661Z,7.50
2023-01-13T19:59:29.063Z,7.40
2023-01-13T20:02:00.635Z,7.30
2023-01-13T20:04:37.716Z,7.30
2023-01-13T20:07:05.914Z,7.30
2023-01-13T20:09:34.377Z,7.10
2023-01-13T20:12:14.053Z,7.00
2023-01-13T20:14:41.619Z,7.10
2023-01-13T20:17:08.534Z,7.10
2023-01-13T20:19:35.459Z,7.10
2023-01-13T20:22:02.357Z,7.20
2023-01-13T20:24:29.346Z,7.30
2023-01-13T20:26:56.313Z,7.30
2023-01-13T20:29:23.420Z,7.40
2023-01-13T20:31:50.945Z,7.40
2023-01-13T20:34:19.242Z,7.30
2023-01-13T20:36:47.852Z,7.40
2023-01-13T20:39:17.527Z,7.40
2023-01-13T20:42:03.429Z,7.20
2023-01-13T20:44:30.448Z,7.40
2023-01-13T20:46:57.956Z,7.60
2023-01-13T20:49:26.862Z,7.60
2023-01-13T20:51:54.966Z,7.50
2023-01-13T20:54:22.003Z,7.60
2023-01-13T20:56:49.287Z,7.50
2023-01-13T20:59:16.571Z,7.60
2023-01-13T21:01:43.834Z,7.70
2023-01-13T21:04:11.628Z,7.70
2023-01-13T21:06:38.870Z,7.80
2023-01-13T21:09:05.754Z,7.80
2023-01-13T21:11:51.596Z,7.70
2023-01-13T21:14:44.971Z,7.50
2023-01-13T21:17:33.179Z,7.40
2023-01-13T21:20:00.468Z,7.30
2023-01-13T21:22:28.163Z,7.30
2023-01-13T21:24:55.272Z,7.20
2023-01-13T21:27:22.239Z,7.20
2023-01-13T21:29:49.089Z,7.40
2023-01-13T21:32:16.498Z,7.40
2023-01-13T21:34:43.342Z,7.40
2023-01-13T21:37:10.190Z,7.50
2023-01-13T21:39:36.940Z,7.40
2023-01-13T21:42:22.601Z,7.30
2023-01-13T21:45:08.252Z,7.20
2023-01-13T21:47:50.387Z,7.40
2023-01-13T21:50:23.008Z,7.50
2023-01-13T21:52:52.213Z,7.60
2023-01-13T21:55:20.794Z,7.60
2023-01-13T21:57:49.052Z,7.40
2023-01-13T22:00:18.123Z,7.20
2023-01-13T22:02:45.011Z,7.10
2023-01-13T22:05:13.505Z,7.10
2023-01-13T22:07:40.834Z,7.10
2023-01-13T22:10:10.364Z,7.00
2023-01-13T22:12:37.458Z,7.00
2023-01-13T22:15:04.908Z,7.00
2023-01-13T22:17:32.380Z,6.90
2023-01-13T22:20:00.251Z,6.90
2023-01-13T22:22:28.609Z,7.00
2023-01-13T22:24:55.528Z,7.10
2023-01-13T22:27:25.789Z,7.20
2023-01-13T22:29:53.303Z,7.20
2023-01-13T22:32:21.244Z,7.30
2023-01-13T22:34:48.392Z,7.40
2023-01-13T22:37:15.263Z,7.50
2023-01-13T22:39:42.025Z,7.50
2023-01-13T22:42:10.310Z,7.60
2023-01-13T22:44:37.093Z,7.60
2023-01-13T22:47:03.876Z,7.40
2023-01-13T22:49:30.891Z,7.40
2023-01-13T22:51:57.730Z,7.50
2023-01-13T22:54:24.490Z,7.50
2023-01-13T22:56:51.253Z,7.40
2023-01-13T22:59:18.309Z,7.40
2023-01-13T23:01:44.971Z,7.30
2023-01-13T23:04:15.187Z,7.30
2023-01-13T23:06:42.016Z,7.20
2023-01-13T23:09:10.026Z,7.20
2023-01-13T23:11:37.475Z,7.10
2023-01-13T23:14:06.358Z,7.00
2023-01-13T23:16:35.887Z,6.90
2023-01-13T23:19:04.419Z,6.70
2023-01-13T23:21:33.291Z,6.50
2023-01-13T23:24:00.383Z,6.50
2023-01-13T23:26:28.786Z,6.40
2023-01-13T23:29:10.962Z,6.30
2023-01-13T23:31:38.296Z,6.20
2023-01-13T23:34:04.958Z,6.00
2023-01-13T23:36:31.819Z,6.00
2023-01-13T23:38:59.688Z,5.90
2023-01-13T23:41:27.571Z,5.80
2023-01-13T23:43:58.337Z,5.70
2023-01-13T23:46:26.092Z,5.60
2023-01-13T23:48:53.073Z,5.50
2023-01-13T23:51:22.915Z,5.40
2023-01-13T23:53:50.976Z,5.40
2023-01-13T23:56:23.719Z,5.30
2023-01-13T23:58:51.662Z,5.30
